Buoy 47555

sailwx.info

Track history (hours):
 
Tides and Currents Weather Stations Pressure Air Temp Water Temp Dewpoint Dewpoint Depression Visibility Wind Speed Wind Dir Waves Ship Positions

Drifting buoy 47555

Last reported at 2018-May-04 10:00 UTC. Time now 2018-Jun-20 22:51 UTC.
Position N 28°09' W 011°56'.
Warning: this ship's position is 47 days out of date.

Barometer 1016.4 mb
Water temperature 16.7 ° C

Date/timePositionNaut miles runAvg speedWind from/ knotsBaromVisibWave heightAir tempDewpointWater temp
2018-May-04 10:00N 28°09' W 011°56'0 0.0 1016.4 16.7
2018-May-04 09:00N 28°09' W 011°56'1 0.6 1015.8 16.6
2018-May-04 08:00N 28°10' W 011°56'0 0.0 1015.4 16.5
2018-May-04 07:00N 28°10' W 011°56'1 0.5 1015.0 16.5
2018-May-04 06:00N 28°10' W 011°56'0 0.0 1014.2 16.5
2018-May-04 05:00N 28°10' W 011°56'0 0.0 1013.9 16.6
2018-May-04 04:00N 28°10' W 011°56'1 0.5 1014.4 16.6
2018-May-04 03:00N 28°10' W 011°55'0 0.0 1014.6 16.7
2018-May-04 02:00N 28°10' W 011°55'1 0.6 1014.9 16.7
2018-May-04 01:00N 28°10' W 011°55'1 0.5 1015.6 16.6
2018-May-04 00:00N 28°10' W 011°55'0 0.0 1016.1 16.4
2018-May-03 23:00N 28°10' W 011°55'1 0.8 1016.4 16.6
2018-May-03 22:00N 28°11' W 011°54'1 0.5 1016.2 16.6
2018-May-03 21:00N 28°11' W 011°53'1 0.8 1015.7 16.7
2018-May-03 20:00N 28°11' W 011°53'0 0.0 1015.3 16.8
2018-May-03 19:00N 28°11' W 011°53'1 0.5 1014.9 16.8
2018-May-03 18:00N 28°11' W 011°52'1 0.6 1015.0 16.8
2018-May-03 17:00N 28°12' W 011°52'1 0.5 1015.1 16.8
2018-May-03 16:00N 28°12' W 011°52'0 0.0 1015.3 16.7
2018-May-03 15:00N 28°12' W 011°52'1 0.5 1015.7 16.5
2018-May-03 14:00N 28°12' W 011°51'1 0.6 1016.1 16.4
2018-May-03 13:00N 28°13' W 011°51'1 0.5 1016.5 16.2
2018-May-03 12:00N 28°13' W 011°50'1 0.8 1017.2 16.1
2018-May-03 11:00N 28°13' W 011°50'1 0.6 1017.1 15.9
2018-May-03 10:00N 28°14' W 011°50'1 0.5 1017.1 15.8
2018-May-03 09:00N 28°14' W 011°49'1 0.8 1016.9 15.8
2018-May-03 08:00N 28°14' W 011°49'0 0.0 1016.7 15.8
2018-May-03 07:00N 28°14' W 011°49'1 0.8 1016.1 15.8
2018-May-03 06:00N 28°15' W 011°48'0 0.0 1015.9 15.8
2018-May-03 05:00N 28°15' W 011°48'1 0.5 1015.9 15.8
2018-May-03 04:00N 28°15' W 011°47'1 0.6 1016.0 15.8
2018-May-03 03:00N 28°16' W 011°47'0 0.0 1016.4 15.8
2018-May-03 02:00N 28°16' W 011°47'1 0.5 1017.1 15.9
2018-May-03 01:00N 28°16' W 011°47'0 0.0 1017.8 15.9
2018-May-03 00:00N 28°16' W 011°47'1 0.6 1018.5 15.9
2018-May-02 23:00N 28°16' W 011°47'1 0.5 1018.8 15.9
2018-May-02 22:00N 28°16' W 011°46'1 0.8 1018.7 15.9
2018-May-02 21:00N 28°17' W 011°46'1 0.5 1018.7 15.9
2018-May-02 20:00N 28°17' W 011°45'0 0.0 1018.0 15.9
2018-May-02 19:00N 28°17' W 011°45'1 0.8 1017.9 15.9
2018-May-02 18:00N 28°17' W 011°44'1 0.5 1017.7 16.0
2018-May-02 17:00N 28°17' W 011°44'1 0.6 1017.9 16.0
2018-May-02 16:00N 28°18' W 011°44'1 0.5 1018.1 16.0
2018-May-02 15:00N 28°18' W 011°43'0 0.0 1018.7 15.9
2018-May-02 14:00N 28°18' W 011°43'1 0.6 1019.4 15.8
2018-May-02 13:00N 28°19' W 011°43'1 0.5 1019.7 15.7
2018-May-02 12:00N 28°19' W 011°43'1 0.6 1020.0 15.7
2018-May-02 11:00N 28°19' W 011°43'1 0.8 1020.0 15.6
2018-May-02 10:00N 28°20' W 011°42'0 0.0 1019.7 15.5
2018-May-02 09:00N 28°20' W 011°42'1 0.8 1019.4 15.5
2018-May-02 08:00N 28°20' W 011°41'1 0.8 1019.2 15.4
2018-May-02 07:00N 28°21' W 011°41'0 0.0 1018.6 15.4
2018-May-02 06:00N 28°21' W 011°41'1 0.8 1017.9 15.4
2018-May-02 05:00N 28°22' W 011°40'0 0.0 1017.8 15.4
2018-May-02 04:00N 28°22' W 011°40'1 0.5 1017.6 15.4
2018-May-02 03:00N 28°22' W 011°40'1 0.6 1018.4 15.3
2018-May-02 02:00N 28°22' W 011°40'0 0.0 1018.7 15.4
2018-May-02 01:00N 28°22' W 011°40'1 0.8 1019.3 15.3
2018-May-02 00:00N 28°23' W 011°39'1 0.6 1019.8 15.3
2018-May-01 23:00N 28°23' W 011°39'0 0.0 1019.9 15.3
2018-May-01 22:00N 28°23' W 011°39'1 0.8 1020.2 15.3
2018-May-01 21:00N 28°24' W 011°38'1 0.8 1020.2 15.3
2018-May-01 20:00N 28°25' W 011°38'0 0.0 1020.1 15.3
2018-May-01 19:00N 28°25' W 011°38'1 0.6 1020.2 15.3
2018-May-01 18:04N 28°25' W 011°37'1 9.0 1019.8 15.3
2018-May-01 18:00N 28°25' W 011°37'1 0.6 1019.8 15.3
2018-May-01 17:06N 28°25' W 011°37'0 0.0 1019.8 15.3
2018-May-01 17:00N 28°25' W 011°37'1 0.6 1019.8 15.3
2018-May-01 16:05N 28°25' W 011°36'1 6.3 1019.7 15.2
2018-May-01 16:00N 28°25' W 011°37'1 0.9 1019.7 15.2
2018-May-01 15:05N 28°26' W 011°36'0 0.0 1020.2 15.3
2018-May-01 15:00N 28°26' W 011°36'1 0.6 1020.2 15.3
2018-May-01 14:04N 28°26' W 011°35'0 0.0 1020.4 15.2
2018-May-01 14:00N 28°26' W 011°35'1 0.6 1020.4 15.2
2018-May-01 13:01N 28°26' W 011°35'0 0.0 1020.7 15.2
2018-May-01 13:00N 28°26' W 011°35'1 0.9 1020.7 15.2
2018-May-01 12:05N 28°27' W 011°35'0 0.0 1021.0 15.1
2018-May-01 12:00N 28°27' W 011°35'1 0.6 1021.0 15.1
2018-May-01 11:04N 28°28' W 011°35'0 0.0 1021.0 15.1
2018-May-01 11:00N 28°28' W 011°35'1 0.9 1021.0 15.1
2018-May-01 10:06N 28°28' W 011°34'0 0.0 1020.7 15.0
2018-May-01 10:00N 28°28' W 011°34'1 0.7 1020.7 15.0
2018-May-01 09:07N 28°29' W 011°34'0 0.0 1020.5 15.0
2018-May-01 09:00N 28°29' W 011°34'1 0.9 1020.5 15.0
2018-May-01 08:05N 28°29' W 011°34'0 0.0 1019.9 15.0
2018-May-01 08:00N 28°29' W 011°34'1 0.9 1019.9 15.0
2018-May-01 07:07N 28°30' W 011°33'0 0.0 1019.6 15.0
2018-May-01 07:00N 28°30' W 011°33'1 0.6 1019.6 15.0
2018-May-01 06:05N 28°30' W 011°32'0 0.0 1019.0 15.0
2018-May-01 06:00N 28°30' W 011°32'1 0.7 1019.0 15.0
2018-May-01 05:05N 28°31' W 011°32'0 0.0 1018.7 15.0
2018-May-01 05:00N 28°31' W 011°32'1 0.9 1018.7 15.0
2018-May-01 04:04N 28°31' W 011°32'0 0.0 1018.8 15.1
2018-May-01 04:00N 28°31' W 011°32'1 0.6 1018.8 15.1
2018-May-01 03:04N 28°31' W 011°31'0 0.0 1018.6 15.1
2018-May-01 03:00N 28°31' W 011°31'1 0.9 1018.6 15.1
2018-May-01 02:06N 28°32' W 011°31'0 0.0 1018.9 15.2
2018-May-01 02:00N 28°32' W 011°31'1 0.9 1018.9 15.2
2018-May-01 01:05N 28°32' W 011°30'0 0.0 1019.5 15.3
2018-May-01 01:00N 28°32' W 011°30'1 0.7 1019.5 15.3
2018-May-01 00:06N 28°33' W 011°30'0 0.0 1019.8 15.6
2018-May-01 00:00N 28°33' W 011°30'1 1.4 1019.8 15.6
2018-Apr-30 23:04N 28°34' W 011°29'0 0.0 1019.7 15.6
2018-Apr-30 23:00N 28°34' W 011°29'1 0.9 1019.7 15.6
2018-Apr-30 22:05N 28°35' W 011°29'0 0.0 1019.4 15.7
2018-Apr-30 22:00N 28°35' W 011°29'1 0.8 1019.4 15.7
2018-Apr-30 21:00N 28°35' W 011°28'1 1.4 1019.2 15.9
2018-Apr-30 20:05N 28°37' W 011°28'0 0.0 1018.7 16.0
2018-Apr-30 20:00N 28°37' W 011°28'1 0.9 1018.7 16.0
2018-Apr-30 19:04N 28°37' W 011°27'0 0.0 1018.4 16.2
2018-Apr-30 19:00N 28°37' W 011°27'1 0.9 1018.4 16.2
2018-Apr-30 18:05N 28°38' W 011°26'0 0.0 1018.3 16.3
2018-Apr-30 18:00N 28°38' W 011°26'1 0.9 1018.3 16.3
2018-Apr-30 17:04N 28°38' W 011°26'0 0.0 1018.1 16.5
2018-Apr-30 17:00N 28°38' W 011°26'1 0.8 1018.1 16.5
2018-Apr-30 16:00N 28°39' W 011°25'1 0.9 1018.1 16.6
2018-Apr-30 15:06N 28°40' W 011°25'0 0.0 1018.1 16.6
2018-Apr-30 15:00N 28°40' W 011°25'1 0.9 1018.1 16.6
2018-Apr-30 14:04N 28°40' W 011°24'0 0.0 1018.2 16.7
2018-Apr-30 14:00N 28°40' W 011°24'0 0.0 1018.2 16.7
2018-Apr-30 13:06N 28°40' W 011°24'0 0.0 1018.8 16.7
2018-Apr-30 13:00N 28°40' W 011°24'1 0.8 1018.8 16.7
2018-Apr-30 12:00N 28°41' W 011°23'1 0.9 1019.0 16.7
2018-Apr-30 11:05N 28°41' W 011°23'1 7.2 1019.1 16.7
2018-Apr-30 11:00N 28°42' W 011°23'1 0.9 1019.1 16.7
2018-Apr-30 10:05N 28°43' W 011°22'0 0.0 1019.0 16.7
2018-Apr-30 10:00N 28°43' W 011°22'1 1.3 1019.0 16.7
2018-Apr-30 09:04N 28°43' W 011°21'0 0.0 1018.7 16.8
2018-Apr-30 09:00N 28°43' W 011°21'1 0.9 1018.7 16.8
2018-Apr-30 08:04N 28°44' W 011°20'0 0.0 1018.4 16.8
2018-Apr-30 08:00N 28°44' W 011°20'1 0.9 1018.4 16.8
2018-Apr-30 07:05N 28°44' W 011°20'0 0.0 1018.0 16.9
2018-Apr-30 07:00N 28°44' W 011°20'1 0.9 1018.0 16.9
2018-Apr-30 06:05N 28°45' W 011°19'0 0.0 1017.8 17.0
2018-Apr-30 06:00N 28°45' W 011°19'1 0.9 1017.8 17.0
2018-Apr-30 05:04N 28°46' W 011°19'0 0.0 1017.5 17.0
2018-Apr-30 05:00N 28°46' W 011°19'1 1.3 1017.5 17.0
2018-Apr-30 04:05N 28°46' W 011°17'0 0.0 1017.3 17.1
2018-Apr-30 04:00N 28°46' W 011°17'1 0.9 1017.3 17.1
2018-Apr-30 03:05N 28°47' W 011°17'0 0.0 1017.0 17.1
2018-Apr-30 03:00N 28°47' W 011°17'2 0.8 1017.0 17.1
2018-Apr-30 01:06N 28°48' W 011°16'0 0.0 1017.8 17.2
2018-Apr-30 01:00N 28°48' W 011°16'1 0.9 1017.8 17.2
2018-Apr-30 00:04N 28°49' W 011°15'0 0.0 1018.4 17.3
2018-Apr-30 00:00N 28°49' W 011°15'1 0.9 1018.4 17.3
2018-Apr-29 23:04N 28°49' W 011°14'0 0.0 1019.0 17.4
2018-Apr-29 23:00N 28°49' W 011°14'1 1.5 1019.0 17.4
2018-Apr-29 22:06N 28°50' W 011°14'0 0.0 1018.5 17.4
2018-Apr-29 22:00N 28°50' W 011°14'1 0.9 1018.5 17.4
2018-Apr-29 21:05N 28°51' W 011°13'0 0.0 1018.6 17.5
2018-Apr-29 21:00N 28°51' W 011°13'1 0.9 1018.6 17.5
2018-Apr-29 20:04N 28°52' W 011°13'0 0.0 1018.0 17.5
2018-Apr-29 20:00N 28°52' W 011°13'5 5.2 1018.0 17.5
2018-Apr-29 19:05N 28°55' W 011°08'447.5 1017.9 17.3
2018-Apr-29 19:00N 28°52' W 011°12'1 0.8 1017.6 17.5
2018-Apr-29 18:00N 28°53' W 011°11'6 0.9 1017.4 17.6
2018-Apr-29 11:05N 28°56' W 011°06'0 0.0 1019.6 17.3
2018-Apr-29 11:00N 28°56' W 011°06'1 1.3 1019.6 17.3
2018-Apr-29 10:05N 28°57' W 011°05'0 0.0 1019.3 17.2
2018-Apr-29 10:00N 28°57' W 011°05'1 0.9 1019.3 17.2
2018-Apr-29 09:05N 28°58' W 011°04'0 0.0 1018.9 17.2
2018-Apr-29 09:00N 28°58' W 011°04'2 1.7 1018.9 17.2
2018-Apr-29 08:04N 28°59' W 011°03'0 0.0 1018.7 17.2
2018-Apr-29 08:00N 28°59' W 011°03'1 0.9 1018.7 17.2
2018-Apr-29 07:04N 28°59' W 011°02'0 0.0 1018.2 17.2
2018-Apr-29 07:00N 28°59' W 011°02'1 1.3 1018.2 17.2
2018-Apr-29 06:05N 29°00' W 011°01'1 6.3 1017.6 17.3
2018-Apr-29 06:00N 29°00' W 011°02'1 1.3 1017.6 17.3
2018-Apr-29 05:04N 29°01' W 011°01'0 0.0 1017.7 17.3
2018-Apr-29 05:00N 29°01' W 011°01'1 1.4 1017.7 17.3
2018-Apr-29 04:04N 29°02' W 011°00'0 0.0 1017.5 17.4
2018-Apr-29 04:00N 29°02' W 011°00'1 0.9 1017.5 17.4
2018-Apr-29 03:04N 29°02' W 010°59'0 0.0 1017.3 17.4
2018-Apr-29 03:00N 29°02' W 010°59'1 0.9 1017.3 17.4
2018-Apr-29 02:05N 29°03' W 010°59'0 0.0 1017.4 17.4
2018-Apr-29 02:00N 29°03' W 010°59'1 0.9 1017.4 17.4
2018-Apr-29 01:05N 29°04' W 010°58'0 0.0 1018.9 17.4
2018-Apr-29 01:00N 29°04' W 010°58'1 0.6 1018.9 17.4
2018-Apr-29 00:05N 29°04' W 010°58'1 6.3 1018.9 17.5
2018-Apr-29 00:00N 29°04' W 010°58'1 0.9 1018.9 17.5
2018-Apr-28 23:04N 29°04' W 010°58'0 0.0 1019.5 17.5
2018-Apr-28 23:00N 29°04' W 010°58'1 0.9 1019.5 17.5
2018-Apr-28 22:05N 29°05' W 010°57'0 0.0 1019.4 17.5
2018-Apr-28 22:00N 29°05' W 010°57'1 0.9 1019.4 17.5
2018-Apr-28 21:05N 29°05' W 010°56'0 0.0 1018.8 17.5
2018-Apr-28 21:00N 29°05' W 010°56'0 0.0 1018.8 17.5
2018-Apr-28 20:06N 29°05' W 010°56'0 0.0 1018.3 17.5
2018-Apr-28 20:00N 29°05' W 010°56'1 0.9 1018.3 17.5
2018-Apr-28 19:04N 29°06' W 010°56'0 0.0 1017.8 17.5
2018-Apr-28 19:00N 29°06' W 010°56'1 0.6 1017.8 17.5
2018-Apr-28 18:04N 29°06' W 010°55'0 0.0 1017.5 17.5
2018-Apr-28 18:00N 29°06' W 010°55'1 1.1 1017.5 17.5
2018-Apr-28 17:05N 29°06' W 010°54'0 0.0 1017.4 17.5
2018-Apr-28 17:00N 29°06' W 010°54'1 0.6 1017.4 17.5
2018-Apr-28 16:05N 29°06' W 010°53'1 7.2 1017.6 17.5
2018-Apr-28 16:00N 29°07' W 010°53'1 1.2 1017.6 17.5
2018-Apr-28 15:06N 29°07' W 010°52'0 0.0 1017.2 17.5
2018-Apr-28 15:00N 29°07' W 010°52'2 1.0 1017.2 17.5
2018-Apr-28 13:05N 29°08' W 010°50'0 0.0 1017.3 17.5
2018-Apr-28 13:00N 29°08' W 010°50'1 0.9 1017.3 17.5
2018-Apr-28 12:05N 29°08' W 010°50'0 0.0 1017.6 17.4
2018-Apr-28 12:00N 29°08' W 010°50'1 0.9 1017.6 17.4
2018-Apr-28 11:04N 29°09' W 010°49'0 0.0 1017.6 17.4
2018-Apr-28 11:00N 29°09' W 010°49'1 0.9 1017.6 17.4
2018-Apr-28 10:05N 29°10' W 010°49'0 0.0 1017.4 17.4
2018-Apr-28 10:00N 29°10' W 010°49'1 1.4 1017.4 17.4
2018-Apr-28 09:04N 29°11' W 010°48'0 0.0 1017.1 17.3
2018-Apr-28 09:00N 29°11' W 010°48'1 0.7 1017.1 17.3
2018-Apr-28 08:05N 29°11' W 010°48'0 0.0 1016.4 17.2
2018-Apr-28 08:00N 29°11' W 010°48'1 0.9 1016.4 17.2
2018-Apr-28 07:07N 29°12' W 010°47'0 0.0 1015.9 17.2
2018-Apr-28 07:00N 29°12' W 010°47'1 0.9 1015.9 17.2
2018-Apr-28 06:06N 29°13' W 010°47'0 0.0 1015.5 17.2
2018-Apr-28 06:00N 29°13' W 010°47'1 0.7 1015.5 17.2
2018-Apr-28 05:05N 29°13' W 010°47'0 0.0 1015.1 17.2
2018-Apr-28 05:00N 29°13' W 010°47'1 0.9 1015.1 17.2
2018-Apr-28 04:04N 29°14' W 010°46'0 0.0 1015.0 17.2
2018-Apr-28 04:00N 29°14' W 010°46'1 0.6 1015.0 17.2
2018-Apr-28 03:04N 29°14' W 010°46'0 0.0 1015.0 17.2
2018-Apr-28 03:00N 29°14' W 010°46'1 0.9 1015.0 17.2
2018-Apr-28 02:05N 29°15' W 010°46'0 0.0 1015.4 17.2
2018-Apr-28 02:00N 29°15' W 010°46'1 0.7 1015.4 17.2
2018-Apr-28 01:05N 29°16' W 010°46'0 0.0 1015.8 17.2
2018-Apr-28 01:00N 29°16' W 010°46'1 0.7 1015.8 17.2
2018-Apr-28 00:06N 29°16' W 010°46'0 0.0 1016.1 17.1
2018-Apr-28 00:00N 29°16' W 010°46'0 0.0 1016.1 17.1
2018-Apr-27 23:04N 29°16' W 010°46'0 0.0 1016.4 17.1
2018-Apr-27 23:00N 29°16' W 010°46'1 0.6 1016.4 17.1
2018-Apr-27 22:02N 29°17' W 010°46'0 0.0 1016.6 17.1
2018-Apr-27 22:00N 29°17' W 010°46'1 0.9 1016.6 17.1
2018-Apr-27 21:05N 29°17' W 010°45'0 0.0 1016.4 17.1
2018-Apr-27 21:00N 29°17' W 010°45'0 0.0 1016.4 17.1
2018-Apr-27 20:05N 29°17' W 010°45'0 0.0 1015.5 17.1
2018-Apr-27 20:00N 29°17' W 010°45'1 0.9 1015.5 17.1
2018-Apr-27 19:05N 29°18' W 010°44'0 0.0 1015.2 17.1
2018-Apr-27 19:00N 29°18' W 010°44'1 0.6 1015.2 17.1
2018-Apr-27 18:05N 29°18' W 010°44'0 0.0 1015.1 17.1
2018-Apr-27 18:00N 29°18' W 010°44'1 0.9 1015.1 17.1
2018-Apr-27 17:04N 29°19' W 010°43'1 7.8 1014.8 17.2
2018-Apr-27 17:00N 29°19' W 010°44'1 0.6 1014.8 17.2
2018-Apr-27 16:05N 29°19' W 010°43'0 0.0 1014.7 17.2
2018-Apr-27 16:00N 29°19' W 010°43'1 0.9 1014.7 17.2
2018-Apr-27 15:04N 29°19' W 010°43'0 0.0 1015.0 17.1
2018-Apr-27 15:00N 29°19' W 010°43'1 0.6 1015.0 17.2
2018-Apr-27 14:04N 29°19' W 010°42'0 0.0 1015.0 17.1
2018-Apr-27 14:00N 29°19' W 010°42'1 0.9 1015.0 17.1
2018-Apr-27 13:05N 29°20' W 010°41'0 0.0 1015.0 17.0
2018-Apr-27 13:00N 29°20' W 010°41'1 0.9 1015.0 17.0
2018-Apr-27 12:06N 29°20' W 010°41'0 0.0 1015.5 17.0
2018-Apr-27 12:00N 29°20' W 010°41'0 0.0 1015.5 17.0
2018-Apr-27 11:04N 29°20' W 010°41'0 0.0 1015.9 17.0
2018-Apr-27 11:00N 29°20' W 010°41'1 0.9 1015.9 17.0
2018-Apr-27 10:04N 29°21' W 010°40'0 0.0 1015.7 16.9
2018-Apr-27 10:00N 29°21' W 010°40'1 0.6 1015.7 17.0
2018-Apr-27 09:01N 29°22' W 010°40'0 0.0 1015.5 17.0
2018-Apr-27 09:00N 29°22' W 010°40'1 1.3 1015.5 17.0
2018-Apr-27 08:04N 29°23' W 010°40'0 0.0 1015.4 16.9
2018-Apr-27 08:00N 29°23' W 010°40'1 0.6 1015.4 16.9
2018-Apr-27 07:04N 29°23' W 010°40'0 0.0 1015.3 16.9
2018-Apr-27 07:00N 29°23' W 010°40'1 0.7 1015.3 16.9
2018-Apr-27 06:05N 29°24' W 010°40'0 0.0 1015.0 16.9
2018-Apr-27 06:00N 29°24' W 010°40'1 0.6 1015.0 16.9
2018-Apr-27 05:04N 29°24' W 010°40'0 0.0 1015.0 17.0
2018-Apr-27 05:00N 29°24' W 010°40'1 0.7 1015.0 17.0
2018-Apr-27 04:05N 29°25' W 010°40'0 0.0 1015.0 17.0
2018-Apr-27 04:00N 29°25' W 010°40'1 0.6 1015.0 17.0
2018-Apr-27 03:05N 29°25' W 010°39'0 0.0 1014.9 17.1
2018-Apr-27 03:00N 29°25' W 010°39'1 0.6 1014.9 17.1
2018-Apr-27 02:05N 29°25' W 010°38'0 0.0 1015.0 17.1
2018-Apr-27 02:00N 29°25' W 010°38'1 0.6 1015.0 17.1
2018-Apr-27 01:02N 29°25' W 010°38'0 0.0 1015.8 17.2
2018-Apr-27 01:00N 29°25' W 010°38'1 0.9 1015.8 17.2
2018-Apr-27 00:05N 29°26' W 010°38'0 0.0 1016.5 17.2
2018-Apr-27 00:00N 29°26' W 010°38'1 0.9 1016.5 17.2
2018-Apr-26 23:05N 29°26' W 010°37'0 0.0 1016.3 17.2
2018-Apr-26 23:00N 29°26' W 010°37'1 0.6 1016.3 17.2
2018-Apr-26 22:04N 29°27' W 010°37'0 0.0 1016.4 17.2
2018-Apr-26 22:00N 29°27' W 010°37'1 0.9 1016.4 17.3
2018-Apr-26 21:07N 29°28' W 010°37'0 0.0 1016.3 17.3
2018-Apr-26 21:00N 29°28' W 010°37'2 1.0 1016.3 17.3
2018-Apr-26 19:04N 29°29' W 010°36'0 0.0 1015.4 17.4
2018-Apr-26 19:00N 29°29' W 010°36'1 1.3 1015.4 17.5
2018-Apr-26 18:05N 29°31' W 010°36'0 0.0 1015.0 17.5
2018-Apr-26 18:00N 29°31' W 010°36'1 0.5 1015.0 17.5
2018-Apr-26 17:01N 29°31' W 010°35'0 0.0 1015.3 17.6
2018-Apr-26 17:00N 29°31' W 010°35'1 0.6 1015.3 17.6
2018-Apr-26 16:04N 29°31' W 010°35'0 0.0 1015.4 17.7
2018-Apr-26 16:00N 29°31' W 010°35'1 1.3 1015.4 17.7
2018-Apr-26 15:04N 29°32' W 010°34'0 0.0 1015.5 17.7
2018-Apr-26 15:00N 29°32' W 010°34'1 1.1 1015.5 17.7
2018-Apr-26 14:04N 29°32' W 010°33'0 0.0 1015.8 17.7
2018-Apr-26 14:00N 29°32' W 010°33'1 0.8 1015.8 17.7
2018-Apr-26 13:00N 29°32' W 010°32'1 1.0 1015.9 17.7
2018-Apr-26 12:00N 29°32' W 010°31'1 1.3 1016.3 17.7
2018-Apr-26 11:05N 29°33' W 010°30'0 0.0 1016.6 17.7
2018-Apr-26 11:00N 29°33' W 010°30'1 1.3 1016.6 17.7
2018-Apr-26 10:04N 29°34' W 010°29'0 0.0 1016.5 17.8
2018-Apr-26 10:00N 29°34' W 010°29'1 0.9 1016.5 17.8
2018-Apr-26 09:04N 29°34' W 010°28'0 0.0 1016.3 17.8
2018-Apr-26 09:00N 29°34' W 010°28'1 0.9 1016.3 17.8
2018-Apr-26 08:04N 29°35' W 010°28'0 0.0 1016.0 17.8
2018-Apr-26 08:00N 29°35' W 010°28'1 1.3 1016.0 17.8
2018-Apr-26 07:04N 29°35' W 010°26'0 0.0 1015.5 17.8
2018-Apr-26 07:00N 29°35' W 010°26'1 0.8 1015.5 17.8
2018-Apr-26 06:01N 29°36' W 010°26'0 0.0 1015.4 17.8
2018-Apr-26 06:00N 29°36' W 010°26'1 1.3 1015.4 17.8
2018-Apr-26 05:04N 29°37' W 010°25'0 0.0 1015.3 17.9
2018-Apr-26 05:00N 29°37' W 010°25'1 0.9 1015.3 17.9
2018-Apr-26 04:05N 29°37' W 010°24'0 0.0 1015.5 17.9
2018-Apr-26 04:00N 29°37' W 010°24'1 1.3 1015.5 17.9
2018-Apr-26 03:04N 29°38' W 010°23'0 0.0 1015.7 17.9
2018-Apr-26 03:00N 29°38' W 010°23'1 0.8 1015.7 17.9
2018-Apr-26 02:00N 29°38' W 010°22'1 0.9 1016.4 18.0
2018-Apr-26 01:05N 29°39' W 010°22'0 0.0 1016.9 18.0
2018-Apr-26 01:00N 29°39' W 010°22'1 1.3 1016.9 18.0
2018-Apr-26 00:04N 29°40' W 010°20'0 0.0 1017.4 18.0
2018-Apr-26 00:00N 29°40' W 010°20'1 0.9 1017.4 18.0
2018-Apr-25 23:04N 29°40' W 010°20'0 0.0 1017.8 18.0
2018-Apr-25 23:00N 29°40' W 010°20'1 1.3 1017.8 18.0
2018-Apr-25 22:00N 29°41' W 010°19'1 0.6 1017.6 18.0
2018-Apr-25 21:04N 29°42' W 010°19'0 0.0 1017.8 18.1
2018-Apr-25 21:00N 29°42' W 010°19'1 0.9 1017.8 18.1
2018-Apr-25 20:05N 29°43' W 010°19'0 0.0 1017.1 18.1
2018-Apr-25 20:00N 29°43' W 010°19'1 0.9 1017.1 18.1
2018-Apr-25 19:04N 29°43' W 010°18'0 0.0 1016.6 18.1
2018-Apr-25 19:00N 29°43' W 010°18'1 1.3 1016.6 18.1
2018-Apr-25 18:04N 29°44' W 010°18'0 0.0 1016.2 18.1
2018-Apr-25 18:00N 29°44' W 010°18'1 0.6 1016.2 18.1
2018-Apr-25 17:00N 29°45' W 010°18'1 1.3 1015.8 18.1
2018-Apr-25 16:05N 29°46' W 010°18'0 0.0 1016.1 18.1
2018-Apr-25 16:00N 29°46' W 010°18'1 0.6 1016.1 18.1
2018-Apr-25 15:04N 29°47' W 010°18'0 0.0 1016.7 18.1
2018-Apr-25 15:00N 29°47' W 010°18'1 0.6 1016.7 18.1
2018-Apr-25 14:04N 29°47' W 010°18'0 0.0 1017.4 18.0
2018-Apr-25 14:00N 29°47' W 010°18'1 1.3 1017.4 18.0
2018-Apr-25 13:05N 29°49' W 010°18'0 0.0 1017.8 18.0
2018-Apr-25 13:00N 29°49' W 010°18'1 0.7 1017.8 18.0
2018-Apr-25 12:07N 29°49' W 010°18'0 0.0 1018.0 17.9
2018-Apr-25 12:00N 29°49' W 010°18'1 0.9 1018.0 18.0
2018-Apr-25 11:04N 29°50' W 010°19'0 0.0 1018.4 17.9
2018-Apr-25 11:00N 29°50' W 010°19'1 0.6 1018.4 17.9
2018-Apr-25 10:00N 29°50' W 010°19'1 1.2 1018.2 17.9
2018-Apr-25 09:00N 29°52' W 010°19'1 0.8 1018.1 17.9
2018-Apr-25 08:00N 29°52' W 010°19'1 0.7 1017.8 17.9
2018-Apr-25 07:07N 29°53' W 010°19'0 0.0 1017.4 18.0
2018-Apr-25 07:00N 29°53' W 010°19'1 0.7 1017.4 18.0
2018-Apr-25 06:05N 29°53' W 010°19'0 0.0 1016.7 18.0
2018-Apr-25 06:00N 29°53' W 010°19'1 0.7 1016.7 18.0
2018-Apr-25 05:06N 29°54' W 010°19'0 0.0 1016.2 18.0
2018-Apr-25 05:00N 29°54' W 010°19'1 0.6 1016.2 18.0
2018-Apr-25 04:04N 29°55' W 010°19'0 0.0 1016.3 18.1
2018-Apr-25 04:00N 29°55' W 010°19'1 1.3 1016.3 18.1
2018-Apr-25 03:04N 29°56' W 010°19'0 0.0 1016.1 18.1
2018-Apr-25 03:00N 29°56' W 010°19'1 0.6 1016.1 18.1
2018-Apr-25 02:00N 29°56' W 010°19'1 0.9 1016.5 18.2
2018-Apr-25 01:05N 29°57' W 010°19'0 0.0 1016.9 18.1
2018-Apr-25 01:00N 29°57' W 010°19'1 1.2 1016.9 18.2
2018-Apr-25 00:00N 29°58' W 010°19'1 1.3 1017.2 18.2
2018-Apr-24 23:04N 29°59' W 010°19'0 0.0 1017.5 18.2
2018-Apr-24 23:00N 29°59' W 010°19'1 0.6 1017.5 18.2
2018-Apr-24 22:00N 30°00' W 010°19'1 1.2 1017.6 18.3
2018-Apr-24 21:01N 30°01' W 010°19'0 0.0 1017.3 18.3
2018-Apr-24 21:00N 30°01' W 010°19'1 1.4 1017.3 18.3
2018-Apr-24 20:04N 30°02' W 010°18'0 0.0 1016.4 18.4
2018-Apr-24 20:00N 30°02' W 010°18'1 1.3 1016.4 18.4
2018-Apr-24 19:04N 30°04' W 010°18'0 0.0 1016.3 18.4
2018-Apr-24 19:00N 30°04' W 010°18'1 1.4 1016.3 18.4
2018-Apr-24 18:05N 30°05' W 010°19'0 0.0 1016.1 18.4
2018-Apr-24 18:00N 30°05' W 010°19'1 1.3 1016.1 18.4
2018-Apr-24 17:04N 30°06' W 010°19'0 0.0 1015.9 18.6
2018-Apr-24 17:00N 30°06' W 010°19'1 1.3 1015.9 18.6
2018-Apr-24 16:04N 30°07' W 010°19'1 7.8 1016.2 18.5
2018-Apr-24 16:00N 30°07' W 010°19'1 0.6 1016.2 18.5
2018-Apr-24 15:01N 30°08' W 010°19'0 0.0 1016.3 18.2
2018-Apr-24 15:00N 30°08' W 010°19'1 0.9 1016.3 18.3
2018-Apr-24 14:07N 30°08' W 010°20'0 0.0 1017.3 18.2
2018-Apr-24 14:00N 30°08' W 010°20'1 0.6 1017.3 18.2
2018-Apr-24 13:01N 30°09' W 010°20'0 0.0 1016.2 18.2
2018-Apr-24 13:00N 30°09' W 010°20'1 0.6 1016.2 18.2
2018-Apr-24 12:04N 30°09' W 010°20'0 0.0 1017.4 18.2
2018-Apr-24 12:00N 30°09' W 010°20'1 0.6 1017.4 18.2
2018-Apr-24 11:04N 30°10' W 010°20'0 0.0 1016.9 18.2
2018-Apr-24 11:00N 30°10' W 010°20'0 0.0 1016.9 18.2
2018-Apr-24 10:04N 30°10' W 010°20'0 0.0 1016.3 18.1
2018-Apr-24 10:00N 30°10' W 010°20'   1016.3 18.2
Track history (hours):
 
Tides and Currents Weather Stations Pressure Air Temp Water Temp Dewpoint Dewpoint Depression Visibility Wind Speed Wind Dir Waves Ship Positions

Drifting buoy 47555

Last reported at 2018-May-04 10:00 UTC. Time now 2018-Jun-20 22:51 UTC.
Position N 28°09' W 011°56'.
Warning: this ship's position is 47 days out of date.

Barometer 1016.4 mb
Water temperature 16.7 ° C

Date/timePositionNaut miles runAvg speedWind from/ knotsBaromVisibWave heightAir tempDewpointWater temp
2018-May-04 10:00N 28°09' W 011°56'0 0.0 1016.4 16.7
2018-May-04 09:00N 28°09' W 011°56'1 0.6 1015.8 16.6
2018-May-04 08:00N 28°10' W 011°56'0 0.0 1015.4 16.5
2018-May-04 07:00N 28°10' W 011°56'1 0.5 1015.0 16.5
2018-May-04 06:00N 28°10' W 011°56'0 0.0 1014.2 16.5
2018-May-04 05:00N 28°10' W 011°56'0 0.0 1013.9 16.6
2018-May-04 04:00N 28°10' W 011°56'1 0.5 1014.4 16.6
2018-May-04 03:00N 28°10' W 011°55'0 0.0 1014.6 16.7
2018-May-04 02:00N 28°10' W 011°55'1 0.6 1014.9 16.7
2018-May-04 01:00N 28°10' W 011°55'1 0.5 1015.6 16.6
2018-May-04 00:00N 28°10' W 011°55'0 0.0 1016.1 16.4
2018-May-03 23:00N 28°10' W 011°55'1 0.8 1016.4 16.6
2018-May-03 22:00N 28°11' W 011°54'1 0.5 1016.2 16.6
2018-May-03 21:00N 28°11' W 011°53'1 0.8 1015.7 16.7
2018-May-03 20:00N 28°11' W 011°53'0 0.0 1015.3 16.8
2018-May-03 19:00N 28°11' W 011°53'1 0.5 1014.9 16.8
2018-May-03 18:00N 28°11' W 011°52'1 0.6 1015.0 16.8
2018-May-03 17:00N 28°12' W 011°52'1 0.5 1015.1 16.8
2018-May-03 16:00N 28°12' W 011°52'0 0.0 1015.3 16.7
2018-May-03 15:00N 28°12' W 011°52'1 0.5 1015.7 16.5
2018-May-03 14:00N 28°12' W 011°51'1 0.6 1016.1 16.4
2018-May-03 13:00N 28°13' W 011°51'1 0.5 1016.5 16.2
2018-May-03 12:00N 28°13' W 011°50'1 0.8 1017.2 16.1
2018-May-03 11:00N 28°13' W 011°50'1 0.6 1017.1 15.9
2018-May-03 10:00N 28°14' W 011°50'1 0.5 1017.1 15.8
2018-May-03 09:00N 28°14' W 011°49'1 0.8 1016.9 15.8
2018-May-03 08:00N 28°14' W 011°49'0 0.0 1016.7 15.8
2018-May-03 07:00N 28°14' W 011°49'1 0.8 1016.1 15.8
2018-May-03 06:00N 28°15' W 011°48'0 0.0 1015.9 15.8
2018-May-03 05:00N 28°15' W 011°48'1 0.5 1015.9 15.8
2018-May-03 04:00N 28°15' W 011°47'1 0.6 1016.0 15.8
2018-May-03 03:00N 28°16' W 011°47'0 0.0 1016.4 15.8
2018-May-03 02:00N 28°16' W 011°47'1 0.5 1017.1 15.9
2018-May-03 01:00N 28°16' W 011°47'0 0.0 1017.8 15.9
2018-May-03 00:00N 28°16' W 011°47'1 0.6 1018.5 15.9
2018-May-02 23:00N 28°16' W 011°47'1 0.5 1018.8 15.9
2018-May-02 22:00N 28°16' W 011°46'1 0.8 1018.7 15.9
2018-May-02 21:00N 28°17' W 011°46'1 0.5 1018.7 15.9
2018-May-02 20:00N 28°17' W 011°45'0 0.0 1018.0 15.9
2018-May-02 19:00N 28°17' W 011°45'1 0.8 1017.9 15.9
2018-May-02 18:00N 28°17' W 011°44'1 0.5 1017.7 16.0
2018-May-02 17:00N 28°17' W 011°44'1 0.6 1017.9 16.0
2018-May-02 16:00N 28°18' W 011°44'1 0.5 1018.1 16.0
2018-May-02 15:00N 28°18' W 011°43'0 0.0 1018.7 15.9
2018-May-02 14:00N 28°18' W 011°43'1 0.6 1019.4 15.8
2018-May-02 13:00N 28°19' W 011°43'1 0.5 1019.7 15.7
2018-May-02 12:00N 28°19' W 011°43'1 0.6 1020.0 15.7
2018-May-02 11:00N 28°19' W 011°43'1 0.8 1020.0 15.6
2018-May-02 10:00N 28°20' W 011°42'0 0.0 1019.7 15.5
2018-May-02 09:00N 28°20' W 011°42'1 0.8 1019.4 15.5
2018-May-02 08:00N 28°20' W 011°41'1 0.8 1019.2 15.4
2018-May-02 07:00N 28°21' W 011°41'0 0.0 1018.6 15.4
2018-May-02 06:00N 28°21' W 011°41'1 0.8 1017.9 15.4
2018-May-02 05:00N 28°22' W 011°40'0 0.0 1017.8 15.4
2018-May-02 04:00N 28°22' W 011°40'1 0.5 1017.6 15.4
2018-May-02 03:00N 28°22' W 011°40'1 0.6 1018.4 15.3
2018-May-02 02:00N 28°22' W 011°40'0 0.0 1018.7 15.4
2018-May-02 01:00N 28°22' W 011°40'1 0.8 1019.3 15.3
2018-May-02 00:00N 28°23' W 011°39'1 0.6 1019.8 15.3
2018-May-01 23:00N 28°23' W 011°39'0 0.0 1019.9 15.3
2018-May-01 22:00N 28°23' W 011°39'1 0.8 1020.2 15.3
2018-May-01 21:00N 28°24' W 011°38'1 0.8 1020.2 15.3
2018-May-01 20:00N 28°25' W 011°38'0 0.0 1020.1 15.3
2018-May-01 19:00N 28°25' W 011°38'1 0.6 1020.2 15.3
2018-May-01 18:04N 28°25' W 011°37'1 9.0 1019.8 15.3
2018-May-01 18:00N 28°25' W 011°37'1 0.6 1019.8 15.3
2018-May-01 17:06N 28°25' W 011°37'0 0.0 1019.8 15.3
2018-May-01 17:00N 28°25' W 011°37'1 0.6 1019.8 15.3
2018-May-01 16:05N 28°25' W 011°36'1 6.3 1019.7 15.2
2018-May-01 16:00N 28°25' W 011°37'1 0.9 1019.7 15.2
2018-May-01 15:05N 28°26' W 011°36'0 0.0 1020.2 15.3
2018-May-01 15:00N 28°26' W 011°36'1 0.6 1020.2 15.3
2018-May-01 14:04N 28°26' W 011°35'0 0.0 1020.4 15.2
2018-May-01 14:00N 28°26' W 011°35'1 0.6 1020.4 15.2
2018-May-01 13:01N 28°26' W 011°35'0 0.0 1020.7 15.2
2018-May-01 13:00N 28°26' W 011°35'1 0.9 1020.7 15.2
2018-May-01 12:05N 28°27' W 011°35'0 0.0 1021.0 15.1
2018-May-01 12:00N 28°27' W 011°35'1 0.6 1021.0 15.1
2018-May-01 11:04N 28°28' W 011°35'0 0.0 1021.0 15.1
2018-May-01 11:00N 28°28' W 011°35'1 0.9 1021.0 15.1
2018-May-01 10:06N 28°28' W 011°34'0 0.0 1020.7 15.0
2018-May-01 10:00N 28°28' W 011°34'1 0.7 1020.7 15.0
2018-May-01 09:07N 28°29' W 011°34'0 0.0 1020.5 15.0
2018-May-01 09:00N 28°29' W 011°34'1 0.9 1020.5 15.0
2018-May-01 08:05N 28°29' W 011°34'0 0.0 1019.9 15.0
2018-May-01 08:00N 28°29' W 011°34'1 0.9 1019.9 15.0
2018-May-01 07:07N 28°30' W 011°33'0 0.0 1019.6 15.0
2018-May-01 07:00N 28°30' W 011°33'1 0.6 1019.6 15.0
2018-May-01 06:05N 28°30' W 011°32'0 0.0 1019.0 15.0
2018-May-01 06:00N 28°30' W 011°32'1 0.7 1019.0 15.0
2018-May-01 05:05N 28°31' W 011°32'0 0.0 1018.7 15.0
2018-May-01 05:00N 28°31' W 011°32'1 0.9 1018.7 15.0
2018-May-01 04:04N 28°31' W 011°32'0 0.0 1018.8 15.1
2018-May-01 04:00N 28°31' W 011°32'1 0.6 1018.8 15.1
2018-May-01 03:04N 28°31' W 011°31'0 0.0 1018.6 15.1
2018-May-01 03:00N 28°31' W 011°31'1 0.9 1018.6 15.1
2018-May-01 02:06N 28°32' W 011°31'0 0.0 1018.9 15.2
2018-May-01 02:00N 28°32' W 011°31'1 0.9 1018.9 15.2
2018-May-01 01:05N 28°32' W 011°30'0 0.0 1019.5 15.3
2018-May-01 01:00N 28°32' W 011°30'1 0.7 1019.5 15.3
2018-May-01 00:06N 28°33' W 011°30'0 0.0 1019.8 15.6
2018-May-01 00:00N 28°33' W 011°30'1 1.4 1019.8 15.6
2018-Apr-30 23:04N 28°34' W 011°29'0 0.0 1019.7 15.6
2018-Apr-30 23:00N 28°34' W 011°29'1 0.9 1019.7 15.6
2018-Apr-30 22:05N 28°35' W 011°29'0 0.0 1019.4 15.7
2018-Apr-30 22:00N 28°35' W 011°29'1 0.8 1019.4 15.7
2018-Apr-30 21:00N 28°35' W 011°28'1 1.4 1019.2 15.9
2018-Apr-30 20:05N 28°37' W 011°28'0 0.0 1018.7 16.0
2018-Apr-30 20:00N 28°37' W 011°28'1 0.9 1018.7 16.0
2018-Apr-30 19:04N 28°37' W 011°27'0 0.0 1018.4 16.2
2018-Apr-30 19:00N 28°37' W 011°27'1 0.9 1018.4 16.2
2018-Apr-30 18:05N 28°38' W 011°26'0 0.0 1018.3 16.3
2018-Apr-30 18:00N 28°38' W 011°26'1 0.9 1018.3 16.3
2018-Apr-30 17:04N 28°38' W 011°26'0 0.0 1018.1 16.5
2018-Apr-30 17:00N 28°38' W 011°26'1 0.8 1018.1 16.5
2018-Apr-30 16:00N 28°39' W 011°25'1 0.9 1018.1 16.6
2018-Apr-30 15:06N 28°40' W 011°25'0 0.0 1018.1 16.6
2018-Apr-30 15:00N 28°40' W 011°25'1 0.9 1018.1 16.6
2018-Apr-30 14:04N 28°40' W 011°24'0 0.0 1018.2 16.7
2018-Apr-30 14:00N 28°40' W 011°24'0 0.0 1018.2 16.7
2018-Apr-30 13:06N 28°40' W 011°24'0 0.0 1018.8 16.7
2018-Apr-30 13:00N 28°40' W 011°24'1 0.8 1018.8 16.7
2018-Apr-30 12:00N 28°41' W 011°23'1 0.9 1019.0 16.7
2018-Apr-30 11:05N 28°41' W 011°23'1 7.2 1019.1 16.7
2018-Apr-30 11:00N 28°42' W 011°23'1 0.9 1019.1 16.7
2018-Apr-30 10:05N 28°43' W 011°22'0 0.0 1019.0 16.7
2018-Apr-30 10:00N 28°43' W 011°22'1 1.3 1019.0 16.7
2018-Apr-30 09:04N 28°43' W 011°21'0 0.0 1018.7 16.8
2018-Apr-30 09:00N 28°43' W 011°21'1 0.9 1018.7 16.8
2018-Apr-30 08:04N 28°44' W 011°20'0 0.0 1018.4 16.8
2018-Apr-30 08:00N 28°44' W 011°20'1 0.9 1018.4 16.8
2018-Apr-30 07:05N 28°44' W 011°20'0 0.0 1018.0 16.9
2018-Apr-30 07:00N 28°44' W 011°20'1 0.9 1018.0 16.9
2018-Apr-30 06:05N 28°45' W 011°19'0 0.0 1017.8 17.0
2018-Apr-30 06:00N 28°45' W 011°19'1 0.9 1017.8 17.0
2018-Apr-30 05:04N 28°46' W 011°19'0 0.0 1017.5 17.0
2018-Apr-30 05:00N 28°46' W 011°19'1 1.3 1017.5 17.0
2018-Apr-30 04:05N 28°46' W 011°17'0 0.0 1017.3 17.1
2018-Apr-30 04:00N 28°46' W 011°17'1 0.9 1017.3 17.1
2018-Apr-30 03:05N 28°47' W 011°17'0 0.0 1017.0 17.1
2018-Apr-30 03:00N 28°47' W 011°17'2 0.8 1017.0 17.1
2018-Apr-30 01:06N 28°48' W 011°16'0 0.0 1017.8 17.2
2018-Apr-30 01:00N 28°48' W 011°16'1 0.9 1017.8 17.2
2018-Apr-30 00:04N 28°49' W 011°15'0 0.0 1018.4 17.3
2018-Apr-30 00:00N 28°49' W 011°15'1 0.9 1018.4 17.3
2018-Apr-29 23:04N 28°49' W 011°14'0 0.0 1019.0 17.4
2018-Apr-29 23:00N 28°49' W 011°14'1 1.5 1019.0 17.4
2018-Apr-29 22:06N 28°50' W 011°14'0 0.0 1018.5 17.4
2018-Apr-29 22:00N 28°50' W 011°14'1 0.9 1018.5 17.4
2018-Apr-29 21:05N 28°51' W 011°13'0 0.0 1018.6 17.5
2018-Apr-29 21:00N 28°51' W 011°13'1 0.9 1018.6 17.5
2018-Apr-29 20:04N 28°52' W 011°13'0 0.0 1018.0 17.5
2018-Apr-29 20:00N 28°52' W 011°13'5 5.2 1018.0 17.5
2018-Apr-29 19:05N 28°55' W 011°08'447.5 1017.9 17.3
2018-Apr-29 19:00N 28°52' W 011°12'1 0.8 1017.6 17.5
2018-Apr-29 18:00N 28°53' W 011°11'6 0.9 1017.4 17.6
2018-Apr-29 11:05N 28°56' W 011°06'0 0.0 1019.6 17.3
2018-Apr-29 11:00N 28°56' W 011°06'1 1.3 1019.6 17.3
2018-Apr-29 10:05N 28°57' W 011°05'0 0.0 1019.3 17.2
2018-Apr-29 10:00N 28°57' W 011°05'1 0.9 1019.3 17.2
2018-Apr-29 09:05N 28°58' W 011°04'0 0.0 1018.9 17.2
2018-Apr-29 09:00N 28°58' W 011°04'2 1.7 1018.9 17.2
2018-Apr-29 08:04N 28°59' W 011°03'0 0.0 1018.7 17.2
2018-Apr-29 08:00N 28°59' W 011°03'1 0.9 1018.7 17.2
2018-Apr-29 07:04N 28°59' W 011°02'0 0.0 1018.2 17.2
2018-Apr-29 07:00N 28°59' W 011°02'1 1.3 1018.2 17.2
2018-Apr-29 06:05N 29°00' W 011°01'1 6.3 1017.6 17.3
2018-Apr-29 06:00N 29°00' W 011°02'1 1.3 1017.6 17.3
2018-Apr-29 05:04N 29°01' W 011°01'0 0.0 1017.7 17.3
2018-Apr-29 05:00N 29°01' W 011°01'1 1.4 1017.7 17.3
2018-Apr-29 04:04N 29°02' W 011°00'0 0.0 1017.5 17.4
2018-Apr-29 04:00N 29°02' W 011°00'1 0.9 1017.5 17.4
2018-Apr-29 03:04N 29°02' W 010°59'0 0.0 1017.3 17.4
2018-Apr-29 03:00N 29°02' W 010°59'1 0.9 1017.3 17.4
2018-Apr-29 02:05N 29°03' W 010°59'0 0.0 1017.4 17.4
2018-Apr-29 02:00N 29°03' W 010°59'1 0.9 1017.4 17.4
2018-Apr-29 01:05N 29°04' W 010°58'0 0.0 1018.9 17.4
2018-Apr-29 01:00N 29°04' W 010°58'1 0.6 1018.9 17.4
2018-Apr-29 00:05N 29°04' W 010°58'1 6.3 1018.9 17.5
2018-Apr-29 00:00N 29°04' W 010°58'1 0.9 1018.9 17.5
2018-Apr-28 23:04N 29°04' W 010°58'0 0.0 1019.5 17.5
2018-Apr-28 23:00N 29°04' W 010°58'1 0.9 1019.5 17.5
2018-Apr-28 22:05N 29°05' W 010°57'0 0.0 1019.4 17.5
2018-Apr-28 22:00N 29°05' W 010°57'1 0.9 1019.4 17.5
2018-Apr-28 21:05N 29°05' W 010°56'0 0.0 1018.8 17.5
2018-Apr-28 21:00N 29°05' W 010°56'0 0.0 1018.8 17.5
2018-Apr-28 20:06N 29°05' W 010°56'0 0.0 1018.3 17.5
2018-Apr-28 20:00N 29°05' W 010°56'1 0.9 1018.3 17.5
2018-Apr-28 19:04N 29°06' W 010°56'0 0.0 1017.8 17.5
2018-Apr-28 19:00N 29°06' W 010°56'1 0.6 1017.8 17.5
2018-Apr-28 18:04N 29°06' W 010°55'0 0.0 1017.5 17.5
2018-Apr-28 18:00N 29°06' W 010°55'1 1.1 1017.5 17.5
2018-Apr-28 17:05N 29°06' W 010°54'0 0.0 1017.4 17.5
2018-Apr-28 17:00N 29°06' W 010°54'1 0.6 1017.4 17.5
2018-Apr-28 16:05N 29°06' W 010°53'1 7.2 1017.6 17.5
2018-Apr-28 16:00N 29°07' W 010°53'1 1.2 1017.6 17.5
2018-Apr-28 15:06N 29°07' W 010°52'0 0.0 1017.2 17.5
2018-Apr-28 15:00N 29°07' W 010°52'2 1.0 1017.2 17.5
2018-Apr-28 13:05N 29°08' W 010°50'0 0.0 1017.3 17.5
2018-Apr-28 13:00N 29°08' W 010°50'1 0.9 1017.3 17.5
2018-Apr-28 12:05N 29°08' W 010°50'0 0.0 1017.6 17.4
2018-Apr-28 12:00N 29°08' W 010°50'1 0.9 1017.6 17.4
2018-Apr-28 11:04N 29°09' W 010°49'0 0.0 1017.6 17.4
2018-Apr-28 11:00N 29°09' W 010°49'1 0.9 1017.6 17.4
2018-Apr-28 10:05N 29°10' W 010°49'0 0.0 1017.4 17.4
2018-Apr-28 10:00N 29°10' W 010°49'1 1.4 1017.4 17.4
2018-Apr-28 09:04N 29°11' W 010°48'0 0.0 1017.1 17.3
2018-Apr-28 09:00N 29°11' W 010°48'1 0.7 1017.1 17.3
2018-Apr-28 08:05N 29°11' W 010°48'0 0.0 1016.4 17.2
2018-Apr-28 08:00N 29°11' W 010°48'1 0.9 1016.4 17.2
2018-Apr-28 07:07N 29°12' W 010°47'0 0.0 1015.9 17.2
2018-Apr-28 07:00N 29°12' W 010°47'1 0.9 1015.9 17.2
2018-Apr-28 06:06N 29°13' W 010°47'0 0.0 1015.5 17.2
2018-Apr-28 06:00N 29°13' W 010°47'1 0.7 1015.5 17.2
2018-Apr-28 05:05N 29°13' W 010°47'0 0.0 1015.1 17.2
2018-Apr-28 05:00N 29°13' W 010°47'1 0.9 1015.1 17.2
2018-Apr-28 04:04N 29°14' W 010°46'0 0.0 1015.0 17.2
2018-Apr-28 04:00N 29°14' W 010°46'1 0.6 1015.0 17.2
2018-Apr-28 03:04N 29°14' W 010°46'0 0.0 1015.0 17.2
2018-Apr-28 03:00N 29°14' W 010°46'1 0.9 1015.0 17.2
2018-Apr-28 02:05N 29°15' W 010°46'0 0.0 1015.4 17.2
2018-Apr-28 02:00N 29°15' W 010°46'1 0.7 1015.4 17.2
2018-Apr-28 01:05N 29°16' W 010°46'0 0.0 1015.8 17.2
2018-Apr-28 01:00N 29°16' W 010°46'1 0.7 1015.8 17.2
2018-Apr-28 00:06N 29°16' W 010°46'0 0.0 1016.1 17.1
2018-Apr-28 00:00N 29°16' W 010°46'0 0.0 1016.1 17.1
2018-Apr-27 23:04N 29°16' W 010°46'0 0.0 1016.4 17.1
2018-Apr-27 23:00N 29°16' W 010°46'1 0.6 1016.4 17.1
2018-Apr-27 22:02N 29°17' W 010°46'0 0.0 1016.6 17.1
2018-Apr-27 22:00N 29°17' W 010°46'1 0.9 1016.6 17.1
2018-Apr-27 21:05N 29°17' W 010°45'0 0.0 1016.4 17.1
2018-Apr-27 21:00N 29°17' W 010°45'0 0.0 1016.4 17.1
2018-Apr-27 20:05N 29°17' W 010°45'0 0.0 1015.5 17.1
2018-Apr-27 20:00N 29°17' W 010°45'1 0.9 1015.5 17.1
2018-Apr-27 19:05N 29°18' W 010°44'0 0.0 1015.2 17.1
2018-Apr-27 19:00N 29°18' W 010°44'1 0.6 1015.2 17.1
2018-Apr-27 18:05N 29°18' W 010°44'0 0.0 1015.1 17.1
2018-Apr-27 18:00N 29°18' W 010°44'1 0.9 1015.1 17.1
2018-Apr-27 17:04N 29°19' W 010°43'1 7.8 1014.8 17.2
2018-Apr-27 17:00N 29°19' W 010°44'1 0.6 1014.8 17.2
2018-Apr-27 16:05N 29°19' W 010°43'0 0.0 1014.7 17.2
2018-Apr-27 16:00N 29°19' W 010°43'1 0.9 1014.7 17.2
2018-Apr-27 15:04N 29°19' W 010°43'0 0.0 1015.0 17.1
2018-Apr-27 15:00N 29°19' W 010°43'1 0.6 1015.0 17.2
2018-Apr-27 14:04N 29°19' W 010°42'0 0.0 1015.0 17.1
2018-Apr-27 14:00N 29°19' W 010°42'1 0.9 1015.0 17.1
2018-Apr-27 13:05N 29°20' W 010°41'0 0.0 1015.0 17.0
2018-Apr-27 13:00N 29°20' W 010°41'1 0.9 1015.0 17.0
2018-Apr-27 12:06N 29°20' W 010°41'0 0.0 1015.5 17.0
2018-Apr-27 12:00N 29°20' W 010°41'0 0.0 1015.5 17.0
2018-Apr-27 11:04N 29°20' W 010°41'0 0.0 1015.9 17.0
2018-Apr-27 11:00N 29°20' W 010°41'1 0.9 1015.9 17.0
2018-Apr-27 10:04N 29°21' W 010°40'0 0.0 1015.7 16.9
2018-Apr-27 10:00N 29°21' W 010°40'1 0.6 1015.7 17.0
2018-Apr-27 09:01N 29°22' W 010°40'0 0.0 1015.5 17.0
2018-Apr-27 09:00N 29°22' W 010°40'1 1.3 1015.5 17.0
2018-Apr-27 08:04N 29°23' W 010°40'0 0.0 1015.4 16.9
2018-Apr-27 08:00N 29°23' W 010°40'1 0.6 1015.4 16.9
2018-Apr-27 07:04N 29°23' W 010°40'0 0.0 1015.3 16.9
2018-Apr-27 07:00N 29°23' W 010°40'1 0.7 1015.3 16.9
2018-Apr-27 06:05N 29°24' W 010°40'0 0.0 1015.0 16.9
2018-Apr-27 06:00N 29°24' W 010°40'1 0.6 1015.0 16.9
2018-Apr-27 05:04N 29°24' W 010°40'0 0.0 1015.0 17.0
2018-Apr-27 05:00N 29°24' W 010°40'1 0.7 1015.0 17.0
2018-Apr-27 04:05N 29°25' W 010°40'0 0.0 1015.0 17.0
2018-Apr-27 04:00N 29°25' W 010°40'1 0.6 1015.0 17.0
2018-Apr-27 03:05N 29°25' W 010°39'0 0.0 1014.9 17.1
2018-Apr-27 03:00N 29°25' W 010°39'1 0.6 1014.9 17.1
2018-Apr-27 02:05N 29°25' W 010°38'0 0.0 1015.0 17.1
2018-Apr-27 02:00N 29°25' W 010°38'1 0.6 1015.0 17.1
2018-Apr-27 01:02N 29°25' W 010°38'0 0.0 1015.8 17.2
2018-Apr-27 01:00N 29°25' W 010°38'1 0.9 1015.8 17.2
2018-Apr-27 00:05N 29°26' W 010°38'0 0.0 1016.5 17.2
2018-Apr-27 00:00N 29°26' W 010°38'1 0.9 1016.5 17.2
2018-Apr-26 23:05N 29°26' W 010°37'0 0.0 1016.3 17.2
2018-Apr-26 23:00N 29°26' W 010°37'1 0.6 1016.3 17.2
2018-Apr-26 22:04N 29°27' W 010°37'0 0.0 1016.4 17.2
2018-Apr-26 22:00N 29°27' W 010°37'1 0.9 1016.4 17.3
2018-Apr-26 21:07N 29°28' W 010°37'0 0.0 1016.3 17.3
2018-Apr-26 21:00N 29°28' W 010°37'2 1.0 1016.3 17.3
2018-Apr-26 19:04N 29°29' W 010°36'0 0.0 1015.4 17.4
2018-Apr-26 19:00N 29°29' W 010°36'1 1.3 1015.4 17.5
2018-Apr-26 18:05N 29°31' W 010°36'0 0.0 1015.0 17.5
2018-Apr-26 18:00N 29°31' W 010°36'1 0.5 1015.0 17.5
2018-Apr-26 17:01N 29°31' W 010°35'0 0.0 1015.3 17.6
2018-Apr-26 17:00N 29°31' W 010°35'1 0.6 1015.3 17.6
2018-Apr-26 16:04N 29°31' W 010°35'0 0.0 1015.4 17.7
2018-Apr-26 16:00N 29°31' W 010°35'1 1.3 1015.4 17.7
2018-Apr-26 15:04N 29°32' W 010°34'0 0.0 1015.5 17.7
2018-Apr-26 15:00N 29°32' W 010°34'1 1.1 1015.5 17.7
2018-Apr-26 14:04N 29°32' W 010°33'0 0.0 1015.8 17.7
2018-Apr-26 14:00N 29°32' W 010°33'1 0.8 1015.8 17.7
2018-Apr-26 13:00N 29°32' W 010°32'1 1.0 1015.9 17.7
2018-Apr-26 12:00N 29°32' W 010°31'1 1.3 1016.3 17.7
2018-Apr-26 11:05N 29°33' W 010°30'0 0.0 1016.6 17.7
2018-Apr-26 11:00N 29°33' W 010°30'1 1.3 1016.6 17.7
2018-Apr-26 10:04N 29°34' W 010°29'0 0.0 1016.5 17.8
2018-Apr-26 10:00N 29°34' W 010°29'1 0.9 1016.5 17.8
2018-Apr-26 09:04N 29°34' W 010°28'0 0.0 1016.3 17.8
2018-Apr-26 09:00N 29°34' W 010°28'1 0.9 1016.3 17.8
2018-Apr-26 08:04N 29°35' W 010°28'0 0.0 1016.0 17.8
2018-Apr-26 08:00N 29°35' W 010°28'1 1.3 1016.0 17.8
2018-Apr-26 07:04N 29°35' W 010°26'0 0.0 1015.5 17.8
2018-Apr-26 07:00N 29°35' W 010°26'1 0.8 1015.5 17.8
2018-Apr-26 06:01N 29°36' W 010°26'0 0.0 1015.4 17.8
2018-Apr-26 06:00N 29°36' W 010°26'1 1.3 1015.4 17.8
2018-Apr-26 05:04N 29°37' W 010°25'0 0.0 1015.3 17.9
2018-Apr-26 05:00N 29°37' W 010°25'1 0.9 1015.3 17.9
2018-Apr-26 04:05N 29°37' W 010°24'0 0.0 1015.5 17.9
2018-Apr-26 04:00N 29°37' W 010°24'1 1.3 1015.5 17.9
2018-Apr-26 03:04N 29°38' W 010°23'0 0.0 1015.7 17.9
2018-Apr-26 03:00N 29°38' W 010°23'1 0.8 1015.7 17.9
2018-Apr-26 02:00N 29°38' W 010°22'1 0.9 1016.4 18.0
2018-Apr-26 01:05N 29°39' W 010°22'0 0.0 1016.9 18.0
2018-Apr-26 01:00N 29°39' W 010°22'1 1.3 1016.9 18.0
2018-Apr-26 00:04N 29°40' W 010°20'0 0.0 1017.4 18.0
2018-Apr-26 00:00N 29°40' W 010°20'1 0.9 1017.4 18.0
2018-Apr-25 23:04N 29°40' W 010°20'0 0.0 1017.8 18.0
2018-Apr-25 23:00N 29°40' W 010°20'1 1.3 1017.8 18.0
2018-Apr-25 22:00N 29°41' W 010°19'1 0.6 1017.6 18.0
2018-Apr-25 21:04N 29°42' W 010°19'0 0.0 1017.8 18.1
2018-Apr-25 21:00N 29°42' W 010°19'1 0.9 1017.8 18.1
2018-Apr-25 20:05N 29°43' W 010°19'0 0.0 1017.1 18.1
2018-Apr-25 20:00N 29°43' W 010°19'1 0.9 1017.1 18.1
2018-Apr-25 19:04N 29°43' W 010°18'0 0.0 1016.6 18.1
2018-Apr-25 19:00N 29°43' W 010°18'1 1.3 1016.6 18.1
2018-Apr-25 18:04N 29°44' W 010°18'0 0.0 1016.2 18.1
2018-Apr-25 18:00N 29°44' W 010°18'1 0.6 1016.2 18.1
2018-Apr-25 17:00N 29°45' W 010°18'1 1.3 1015.8 18.1
2018-Apr-25 16:05N 29°46' W 010°18'0 0.0 1016.1 18.1
2018-Apr-25 16:00N 29°46' W 010°18'1 0.6 1016.1 18.1
2018-Apr-25 15:04N 29°47' W 010°18'0 0.0 1016.7 18.1
2018-Apr-25 15:00N 29°47' W 010°18'1 0.6 1016.7 18.1
2018-Apr-25 14:04N 29°47' W 010°18'0 0.0 1017.4 18.0
2018-Apr-25 14:00N 29°47' W 010°18'1 1.3 1017.4 18.0
2018-Apr-25 13:05N 29°49' W 010°18'0 0.0 1017.8 18.0
2018-Apr-25 13:00N 29°49' W 010°18'1 0.7 1017.8 18.0
2018-Apr-25 12:07N 29°49' W 010°18'0 0.0 1018.0 17.9
2018-Apr-25 12:00N 29°49' W 010°18'1 0.9 1018.0 18.0
2018-Apr-25 11:04N 29°50' W 010°19'0 0.0 1018.4 17.9
2018-Apr-25 11:00N 29°50' W 010°19'1 0.6 1018.4 17.9
2018-Apr-25 10:00N 29°50' W 010°19'1 1.2 1018.2 17.9
2018-Apr-25 09:00N 29°52' W 010°19'1 0.8 1018.1 17.9
2018-Apr-25 08:00N 29°52' W 010°19'1 0.7 1017.8 17.9
2018-Apr-25 07:07N 29°53' W 010°19'0 0.0 1017.4 18.0
2018-Apr-25 07:00N 29°53' W 010°19'1 0.7 1017.4 18.0
2018-Apr-25 06:05N 29°53' W 010°19'0 0.0 1016.7 18.0
2018-Apr-25 06:00N 29°53' W 010°19'1 0.7 1016.7 18.0
2018-Apr-25 05:06N 29°54' W 010°19'0 0.0 1016.2 18.0
2018-Apr-25 05:00N 29°54' W 010°19'1 0.6 1016.2 18.0
2018-Apr-25 04:04N 29°55' W 010°19'0 0.0 1016.3 18.1
2018-Apr-25 04:00N 29°55' W 010°19'1 1.3 1016.3 18.1
2018-Apr-25 03:04N 29°56' W 010°19'0 0.0 1016.1 18.1
2018-Apr-25 03:00N 29°56' W 010°19'1 0.6 1016.1 18.1
2018-Apr-25 02:00N 29°56' W 010°19'1 0.9 1016.5 18.2
2018-Apr-25 01:05N 29°57' W 010°19'0 0.0 1016.9 18.1
2018-Apr-25 01:00N 29°57' W 010°19'1 1.2 1016.9 18.2
2018-Apr-25 00:00N 29°58' W 010°19'1 1.3 1017.2 18.2
2018-Apr-24 23:04N 29°59' W 010°19'0 0.0 1017.5 18.2
2018-Apr-24 23:00N 29°59' W 010°19'1 0.6 1017.5 18.2
2018-Apr-24 22:00N 30°00' W 010°19'1 1.2 1017.6 18.3
2018-Apr-24 21:01N 30°01' W 010°19'0 0.0 1017.3 18.3
2018-Apr-24 21:00N 30°01' W 010°19'1 1.4 1017.3 18.3
2018-Apr-24 20:04N 30°02' W 010°18'0 0.0 1016.4 18.4
2018-Apr-24 20:00N 30°02' W 010°18'1 1.3 1016.4 18.4
2018-Apr-24 19:04N 30°04' W 010°18'0 0.0 1016.3 18.4
2018-Apr-24 19:00N 30°04' W 010°18'1 1.4 1016.3 18.4
2018-Apr-24 18:05N 30°05' W 010°19'0 0.0 1016.1 18.4
2018-Apr-24 18:00N 30°05' W 010°19'1 1.3 1016.1 18.4
2018-Apr-24 17:04N 30°06' W 010°19'0 0.0 1015.9 18.6
2018-Apr-24 17:00N 30°06' W 010°19'1 1.3 1015.9 18.6
2018-Apr-24 16:04N 30°07' W 010°19'1 7.8 1016.2 18.5
2018-Apr-24 16:00N 30°07' W 010°19'1 0.6 1016.2 18.5
2018-Apr-24 15:01N 30°08' W 010°19'0 0.0 1016.3 18.2
2018-Apr-24 15:00N 30°08' W 010°19'1 0.9 1016.3 18.3
2018-Apr-24 14:07N 30°08' W 010°20'0 0.0 1017.3 18.2
2018-Apr-24 14:00N 30°08' W 010°20'1 0.6 1017.3 18.2
2018-Apr-24 13:01N 30°09' W 010°20'0 0.0 1016.2 18.2
2018-Apr-24 13:00N 30°09' W 010°20'1 0.6 1016.2 18.2
2018-Apr-24 12:04N 30°09' W 010°20'0 0.0 1017.4 18.2
2018-Apr-24 12:00N 30°09' W 010°20'1 0.6 1017.4 18.2
2018-Apr-24 11:04N 30°10' W 010°20'0 0.0 1016.9 18.2
2018-Apr-24 11:00N 30°10' W 010°20'0 0.0 1016.9 18.2
2018-Apr-24 10:04N 30°10' W 010°20'0 0.0 1016.3 18.1
2018-Apr-24 10:00N 30°10' W 010°20'   1016.3 18.2

Dump ship's entire track history